Col. Bosques de las Lomas, Mexico

6:09 AM CDT on August 18, 2017 (GMT -0500)
Lomas de Vista Hermosa | | Change Station

Elev 8464 ft 19.38 °N, 99.27 °W | Updated 7 minutes ago

Overcast
Overcast
59.9 °F
Feels Like 59.9 °F
N
1.9
Wind Variable Wind from WNW
Gusts 3.1 mph

Today
High -- | Low -- °F
--% Chance of Precip.
Yesterday
High -- | Low -- °F
Precip. -- in
Pressure 30.44 in
Visibility 3.0 miles
Clouds Mostly Cloudy 1500 ft
Mostly Cloudy 7000 ft
Dew Point 54 °F
Humidity 80%
Rainfall 0.00 in
Snow Depth Not available.
7:18 AM 8:02 PM
Waning Crescent, 14% visible
METAR MMTO 181046Z 00000KT 3SM BR HZ BKN015 BKN070 11/10 A3044 RMK 8/630
Pressure 30.44 in
Visibility 3.0 miles
Clouds Mostly Cloudy 1500 ft
Mostly Cloudy 7000 ft
Dew Point 54 °F
Humidity 80%
Rainfall 0.00 in
Snow Depth Not available.
7:18 AM 8:02 PM
Waning Crescent, 14% visible
METAR MMTO 181046Z 00000KT 3SM BR HZ BKN015 BKN070 11/10 A3044 RMK 8/630

Get Severe Weather Alerts

Thanks for signing up!

Be on the lookout for a verification email in your inbox.

You'll start receiving the daily forecast at 6 AM.

×

10-Day Weather Forecast

No radar image for this location.
×

Almanac

Astronomy

Aug. 18, 2017 Rise Set
Actual Time
Civil Twilight
Nautical Twilight
Astronomical Twilight
Moon
Length of Visible Light
Length of Day
Tomorrow will be .
, % of the Moon is Illuminated

Today's Extremes

Country Highs Country Lows

Community

WunderPhotos

Category 6

Welcome to Category 6. This is the collective home for Weather Underground's featured writeups by Dr. Jeff Masters (right), Bob Henson (left), Chris Burt, and other regular contributors.

Nearby

Air Quality

  Air Quality AQ Index Pollutant
Not available.

Snow Depth

Station Depth Elevation

Earthquake Activity

City Distance Mag. Time & Date
Minimum magnitude displayed is 2.5.

Coastal Water Temperatures

Place Temperature

Stations

Nearby Weather Stations

Station Location Temp. Windchill Dew Point Humidity Wind Precip. Elev Updated Type